createdAt,value
2022-11-01T00:00:17.297Z,8.27
2022-11-01T00:01:16.805Z,8.21
2022-11-01T00:02:16.780Z,8.21
2022-11-01T00:03:16.393Z,8.26
2022-11-01T00:04:16.869Z,8.21
2022-11-01T00:05:16.334Z,8.09
2022-11-01T00:06:16.818Z,8.02
2022-11-01T00:07:17.266Z,7.98
2022-11-01T00:08:16.694Z,7.96
2022-11-01T00:09:17.116Z,8.02
2022-11-01T00:11:17.000Z,8.08
2022-11-01T00:12:16.872Z,8.10
2022-11-01T00:13:16.311Z,8.13
2022-11-01T00:14:16.734Z,8.13
2022-11-01T00:15:17.172Z,8.16
2022-11-01T00:16:16.643Z,8.24
2022-11-01T00:17:17.154Z,8.27
2022-11-01T00:18:16.621Z,8.24
2022-11-01T00:19:17.083Z,8.26
2022-11-01T00:20:16.568Z,8.23
2022-11-01T00:21:17.055Z,8.21
2022-11-01T00:22:17.113Z,8.21
2022-11-01T00:23:16.578Z,8.20
2022-11-01T00:24:17.011Z,8.26
2022-11-01T00:25:16.463Z,8.26
2022-11-01T00:26:16.895Z,8.23
2022-11-01T00:27:16.342Z,8.27
2022-11-01T00:28:16.808Z,8.29
2022-11-01T00:29:17.258Z,8.33
2022-11-01T00:30:16.735Z,8.39
2022-11-01T00:31:17.315Z,8.44
2022-11-01T00:32:16.954Z,8.43
2022-11-01T00:33:16.406Z,8.08
2022-11-01T00:34:16.892Z,8.17
2022-11-01T00:35:16.422Z,8.21
2022-11-01T00:36:16.898Z,8.24
2022-11-01T00:37:16.393Z,8.29
2022-11-01T00:38:16.824Z,8.36
2022-11-01T00:39:17.301Z,8.29
2022-11-01T00:40:16.777Z,8.10
2022-11-01T00:41:17.240Z,7.92
2022-11-01T00:42:17.104Z,7.82
2022-11-01T00:43:16.593Z,7.80
2022-11-01T00:44:17.031Z,7.82
2022-11-01T00:45:16.536Z,7.88
2022-11-01T00:46:17.064Z,7.92
2022-11-01T00:47:16.528Z,7.92
2022-11-01T00:48:16.984Z,7.92
2022-11-01T00:49:16.466Z,7.92
2022-11-01T00:50:16.934Z,7.92
2022-11-01T00:51:16.393Z,7.89
2022-11-01T00:52:16.338Z,7.89
2022-11-01T00:53:16.806Z,7.89
2022-11-01T00:54:17.245Z,7.86
2022-11-01T00:55:16.678Z,7.85
2022-11-01T00:56:17.144Z,7.95
2022-11-01T00:57:16.577Z,7.92
2022-11-01T00:58:17.020Z,7.89
2022-11-01T00:59:16.513Z,7.91
2022-11-01T01:00:17.009Z,7.92
2022-11-01T01:01:16.564Z,7.93
2022-11-01T01:02:17.006Z,7.98
2022-11-01T01:03:16.650Z,8.02
2022-11-01T01:04:17.144Z,8.06
2022-11-01T01:05:16.629Z,8.13
2022-11-01T01:06:17.097Z,8.21
2022-11-01T01:07:16.563Z,8.16
2022-11-01T01:08:16.995Z,8.21
2022-11-01T01:09:16.424Z,8.16
2022-11-01T01:10:16.853Z,8.19
2022-11-01T01:11:16.313Z,7.99
2022-11-01T01:12:16.968Z,7.96
2022-11-01T01:13:16.441Z,7.88
2022-11-01T01:14:16.921Z,7.86
2022-11-01T01:15:16.373Z,7.78
2022-11-01T01:16:16.848Z,7.75
2022-11-01T01:17:16.321Z,7.80
2022-11-01T01:18:16.785Z,7.77
2022-11-01T01:19:17.248Z,7.74
2022-11-01T01:20:16.708Z,7.74
2022-11-01T01:21:17.217Z,7.85
2022-11-01T01:22:16.500Z,7.95
2022-11-01T01:23:16.925Z,8.03
2022-11-01T01:24:16.371Z,8.02
2022-11-01T01:25:16.854Z,8.03
2022-11-01T01:26:16.313Z,8.02
2022-11-01T01:27:16.777Z,8.03
2022-11-01T01:28:17.218Z,8.00
2022-11-01T01:29:16.685Z,8.03
2022-11-01T01:30:17.156Z,8.08
2022-11-01T01:31:16.617Z,8.14
2022-11-01T01:32:16.831Z,8.19
2022-11-01T01:33:16.339Z,8.19
2022-11-01T01:34:16.871Z,8.20
2022-11-01T01:35:16.319Z,8.21
2022-11-01T01:36:16.768Z,8.29
2022-11-01T01:37:17.193Z,8.31
2022-11-01T01:38:16.634Z,8.05
2022-11-01T01:39:17.096Z,7.95
2022-11-01T01:40:16.531Z,7.92
2022-11-01T01:41:16.955Z,7.91
2022-11-01T01:42:16.648Z,7.96
2022-11-01T01:43:17.138Z,7.96
2022-11-01T01:44:16.605Z,8.00
2022-11-01T01:45:17.072Z,8.02
2022-11-01T01:46:16.533Z,8.00
2022-11-01T01:47:16.978Z,8.05
2022-11-01T01:48:16.441Z,8.06
2022-11-01T01:49:16.909Z,7.86
2022-11-01T01:50:16.382Z,7.78
2022-11-01T01:51:16.826Z,7.82
2022-11-01T01:52:16.727Z,7.72
2022-11-01T01:53:17.172Z,7.75
2022-11-01T01:54:16.591Z,7.96
2022-11-01T01:55:17.020Z,8.02
2022-11-01T01:56:16.464Z,7.95
2022-11-01T01:57:16.950Z,7.93
2022-11-01T01:58:16.439Z,7.92
2022-11-01T01:59:16.940Z,7.89
2022-11-01T02:00:16.437Z,8.03
2022-11-01T02:01:17.069Z,8.05
2022-11-01T02:02:16.837Z,8.03
2022-11-01T02:03:16.469Z,7.98
2022-11-01T02:04:16.932Z,7.74
2022-11-01T02:05:16.414Z,7.47
2022-11-01T02:06:16.937Z,7.45
2022-11-01T02:07:16.519Z,7.43
2022-11-01T02:08:16.954Z,7.44
2022-11-01T02:09:16.386Z,7.48
2022-11-01T02:10:16.822Z,7.53
2022-11-01T02:11:17.268Z,7.55
2022-11-01T02:12:16.952Z,7.55
2022-11-01T02:13:16.442Z,7.57
2022-11-01T02:14:16.918Z,7.61
2022-11-01T02:15:16.392Z,7.64
2022-11-01T02:16:16.850Z,7.66
2022-11-01T02:17:16.342Z,7.66
2022-11-01T02:18:16.849Z,7.68
2022-11-01T02:19:16.312Z,7.66
2022-11-01T02:20:16.760Z,7.68
2022-11-01T02:21:17.209Z,7.69
2022-11-01T02:22:16.362Z,7.66
2022-11-01T02:23:16.804Z,7.71
2022-11-01T02:24:17.256Z,7.74
2022-11-01T02:25:16.679Z,7.75
2022-11-01T02:26:17.130Z,7.78
2022-11-01T02:27:16.605Z,7.75
2022-11-01T02:28:17.094Z,7.75
2022-11-01T02:29:16.566Z,7.78
2022-11-01T02:30:17.025Z,7.82
2022-11-01T02:31:16.488Z,7.78
2022-11-01T02:32:16.425Z,7.81
2022-11-01T02:33:16.885Z,7.82
2022-11-01T02:34:16.323Z,7.81
2022-11-01T02:35:16.788Z,7.80
2022-11-01T02:36:17.289Z,7.82
2022-11-01T02:37:16.722Z,7.81
2022-11-01T02:38:17.160Z,7.82
2022-11-01T02:39:16.669Z,7.86
2022-11-01T02:40:17.152Z,7.85
2022-11-01T02:41:16.585Z,7.85
2022-11-01T02:42:17.237Z,7.86
2022-11-01T02:43:16.704Z,7.93
2022-11-01T02:44:17.181Z,7.92
2022-11-01T02:45:16.685Z,7.91
2022-11-01T02:46:17.204Z,7.92
2022-11-01T02:47:16.667Z,7.95
2022-11-01T02:48:17.125Z,7.99
2022-11-01T02:49:16.551Z,8.05
2022-11-01T02:50:16.988Z,8.00
2022-11-01T02:51:16.415Z,8.06
2022-11-01T02:52:16.468Z,8.08
2022-11-01T02:53:16.926Z,8.12
2022-11-01T02:54:16.361Z,8.08
2022-11-01T02:55:16.795Z,8.10
2022-11-01T02:56:17.261Z,8.16
2022-11-01T02:57:16.729Z,8.17
2022-11-01T02:58:17.196Z,8.27
2022-11-01T02:59:16.683Z,8.34
2022-11-01T03:00:17.188Z,8.37
2022-11-01T03:01:16.819Z,8.27
2022-11-01T03:02:17.181Z,8.26
2022-11-01T03:03:16.726Z,8.24
2022-11-01T03:04:17.201Z,8.30
2022-11-01T03:05:16.656Z,8.30
2022-11-01T03:06:17.099Z,8.36
2022-11-01T03:07:16.549Z,8.36
2022-11-01T03:08:16.979Z,8.34
2022-11-01T03:09:16.431Z,8.31
2022-11-01T03:10:16.853Z,8.31
2022-11-01T03:11:17.300Z,8.30
2022-11-01T03:12:17.183Z,8.27
2022-11-01T03:13:16.712Z,8.21
2022-11-01T03:14:17.205Z,8.21
2022-11-01T03:15:16.702Z,8.21
2022-11-01T03:16:17.188Z,8.21
2022-11-01T03:17:16.640Z,8.06
2022-11-01T03:18:17.080Z,8.05
2022-11-01T03:19:16.530Z,8.06
2022-11-01T03:20:16.988Z,8.05
2022-11-01T03:21:16.432Z,8.12
2022-11-01T03:22:17.224Z,8.06
2022-11-01T03:23:16.655Z,8.06
2022-11-01T03:24:17.084Z,8.09
2022-11-01T03:25:16.535Z,8.09
2022-11-01T03:26:17.031Z,8.08
2022-11-01T03:27:16.546Z,8.06
2022-11-01T03:28:17.043Z,8.02
2022-11-01T03:29:16.534Z,7.96
2022-11-01T03:30:16.998Z,7.95
2022-11-01T03:31:16.488Z,7.92
2022-11-01T03:32:16.467Z,7.89
2022-11-01T03:33:16.892Z,7.91
2022-11-01T03:34:16.361Z,7.88
2022-11-01T03:35:16.801Z,7.89
2022-11-01T03:36:17.249Z,7.85
2022-11-01T03:37:16.697Z,7.84
2022-11-01T03:38:17.161Z,7.80
2022-11-01T03:39:16.592Z,7.78
2022-11-01T03:40:17.043Z,7.75
2022-11-01T03:41:16.536Z,7.80
2022-11-01T03:42:16.360Z,7.80
2022-11-01T03:43:16.823Z,7.82
2022-11-01T03:44:17.317Z,7.81
2022-11-01T03:45:16.836Z,7.77
2022-11-01T03:46:16.426Z,7.68
2022-11-01T03:47:16.904Z,7.66
2022-11-01T03:48:16.385Z,7.64
2022-11-01T03:49:16.819Z,7.69
2022-11-01T03:50:17.267Z,7.69
2022-11-01T03:51:16.736Z,7.74
2022-11-01T03:52:17.036Z,7.77
2022-11-01T03:53:16.507Z,7.77
2022-11-01T03:54:16.940Z,7.75
2022-11-01T03:55:16.412Z,7.72
2022-11-01T03:56:16.925Z,7.72
2022-11-01T03:57:16.438Z,7.72
2022-11-01T03:58:16.922Z,7.74
2022-11-01T03:59:16.380Z,7.75
2022-11-01T04:00:16.849Z,7.77
2022-11-01T04:01:16.472Z,7.75
2022-11-01T04:02:17.128Z,7.74
2022-11-01T04:03:16.580Z,7.74
2022-11-01T04:04:17.022Z,7.75
2022-11-01T04:05:16.504Z,7.81
2022-11-01T04:06:16.973Z,7.84
2022-11-01T04:07:16.459Z,7.84
2022-11-01T04:08:16.958Z,7.88
2022-11-01T04:09:16.467Z,7.98
2022-11-01T04:10:16.951Z,8.20
2022-11-01T04:11:16.432Z,8.19
2022-11-01T04:12:16.997Z,8.34
2022-11-01T04:13:16.428Z,8.37
2022-11-01T04:14:16.907Z,8.36
2022-11-01T04:15:16.358Z,8.40
2022-11-01T04:16:16.800Z,8.36
2022-11-01T04:17:17.258Z,8.33
2022-11-01T04:18:16.839Z,8.16
2022-11-01T04:19:17.295Z,7.99
2022-11-01T04:20:16.766Z,7.98
2022-11-01T04:21:17.265Z,7.98
2022-11-01T04:22:18.221Z,8.02
2022-11-01T04:23:16.914Z,7.95
2022-11-01T04:24:16.409Z,8.09
2022-11-01T04:25:16.897Z,8.14
2022-11-01T04:26:16.371Z,8.21
2022-11-01T04:27:16.833Z,8.24
2022-11-01T04:28:17.253Z,8.29
2022-11-01T04:29:16.696Z,8.24
2022-11-01T04:30:17.152Z,8.24
2022-11-01T04:31:16.589Z,8.20
2022-11-01T04:32:16.561Z,8.16
2022-11-01T04:33:16.993Z,8.14
2022-11-01T04:34:16.436Z,8.14
2022-11-01T04:35:16.922Z,8.16
2022-11-01T04:36:16.402Z,8.16
2022-11-01T04:37:16.863Z,8.16
2022-11-01T04:38:16.377Z,8.17
2022-11-01T04:39:16.851Z,8.17
2022-11-01T04:40:16.325Z,8.17
2022-11-01T04:41:16.776Z,8.29
2022-11-01T04:42:17.087Z,8.29
2022-11-01T04:43:16.553Z,8.34
2022-11-01T04:44:16.989Z,8.37
2022-11-01T04:45:16.416Z,8.37
2022-11-01T04:46:16.841Z,8.39
2022-11-01T04:47:17.295Z,8.40
2022-11-01T04:48:16.727Z,8.40
2022-11-01T04:49:17.220Z,8.26
2022-11-01T04:50:16.684Z,8.20
2022-11-01T04:51:17.166Z,8.23
2022-11-01T04:52:17.069Z,8.21
2022-11-01T04:53:16.583Z,8.17
2022-11-01T04:54:17.073Z,8.20
2022-11-01T04:55:16.557Z,8.19
2022-11-01T04:56:17.005Z,8.23
2022-11-01T04:57:16.436Z,8.27
2022-11-01T04:58:16.865Z,8.27
2022-11-01T04:59:16.296Z,8.23
2022-11-01T05:00:16.729Z,8.08
2022-11-01T05:01:17.294Z,8.03
2022-11-01T05:02:16.969Z,8.05
2022-11-01T05:03:16.586Z,8.08
2022-11-01T05:04:17.097Z,8.06
2022-11-01T05:05:16.557Z,8.08
2022-11-01T05:06:17.017Z,8.02
2022-11-01T05:07:16.482Z,8.06
2022-11-01T05:08:17.016Z,8.10
2022-11-01T05:09:16.493Z,8.26
2022-11-01T05:10:16.959Z,8.36
2022-11-01T05:11:16.397Z,8.40
2022-11-01T05:12:17.553Z,8.37
2022-11-01T05:13:16.998Z,8.40
2022-11-01T05:14:16.471Z,8.26
2022-11-01T05:15:16.914Z,8.23
2022-11-01T05:16:20.578Z,8.14
2022-11-01T05:17:16.680Z,8.14
2022-11-01T05:18:17.177Z,8.14
2022-11-01T05:19:16.672Z,8.12
2022-11-01T05:20:17.138Z,8.12
2022-11-01T05:21:16.642Z,8.14
2022-11-01T05:22:16.584Z,8.17
2022-11-01T05:23:17.045Z,8.13
2022-11-01T05:24:16.506Z,8.17
2022-11-01T05:25:16.956Z,8.17
2022-11-01T05:26:16.399Z,8.19
2022-11-01T05:27:16.883Z,8.20
2022-11-01T05:28:16.326Z,8.23
2022-11-01T05:29:24.618Z,8.24
2022-11-01T05:30:16.299Z,8.26
2022-11-01T05:31:16.771Z,8.26
2022-11-01T05:32:17.162Z,8.27
2022-11-01T05:33:16.613Z,8.29
2022-11-01T05:34:17.111Z,8.33
2022-11-01T05:35:16.606Z,8.33
2022-11-01T05:36:17.089Z,8.31
2022-11-01T05:37:16.572Z,8.29
2022-11-01T05:38:17.026Z,8.31
2022-11-01T05:39:16.572Z,8.30
2022-11-01T05:40:17.159Z,8.33
2022-11-01T05:41:16.594Z,8.30
2022-11-01T05:42:17.242Z,8.31
2022-11-01T05:43:16.665Z,8.31
2022-11-01T05:44:17.097Z,8.33
2022-11-01T05:45:16.531Z,8.33
2022-11-01T05:46:17.001Z,8.31
2022-11-01T05:47:17.223Z,8.31
2022-11-01T05:48:17.082Z,8.31
2022-11-01T05:49:16.558Z,8.37
2022-11-01T05:50:17.066Z,8.40
2022-11-01T05:51:16.570Z,8.40
2022-11-01T05:52:16.346Z,8.39
2022-11-01T05:53:16.800Z,8.37
2022-11-01T05:54:17.258Z,8.37
2022-11-01T05:55:16.734Z,8.39
2022-11-01T05:56:17.159Z,8.41
2022-11-01T05:57:16.593Z,8.41
2022-11-01T05:58:17.041Z,8.37
2022-11-01T05:59:16.507Z,8.39
2022-11-01T06:00:16.950Z,8.36
2022-11-01T06:01:16.424Z,8.37
2022-11-01T06:02:17.264Z,8.39
2022-11-01T06:03:16.817Z,8.40
2022-11-01T06:04:17.306Z,8.41
2022-11-01T06:05:16.771Z,8.43
2022-11-01T06:06:17.238Z,8.43
2022-11-01T06:07:16.709Z,8.44
2022-11-01T06:08:17.217Z,8.47
2022-11-01T06:09:16.700Z,8.48
2022-11-01T06:10:17.128Z,8.52
2022-11-01T06:11:16.549Z,8.58
2022-11-01T06:12:16.406Z,8.58
2022-11-01T06:13:16.839Z,8.62
2022-11-01T06:14:17.269Z,8.75
2022-11-01T06:15:16.714Z,8.78
2022-11-01T06:16:17.139Z,8.75
2022-11-01T06:17:16.580Z,8.75
2022-11-01T06:18:17.040Z,8.75
2022-11-01T06:19:16.513Z,8.68
2022-11-01T06:20:16.979Z,8.67
2022-11-01T06:21:16.434Z,8.65
2022-11-01T06:22:16.854Z,8.68
2022-11-01T06:23:16.309Z,8.71
2022-11-01T06:24:16.789Z,8.74
2022-11-01T06:25:17.216Z,8.74
2022-11-01T06:26:16.646Z,8.78
2022-11-01T06:27:17.073Z,8.78
2022-11-01T06:28:16.543Z,8.78
2022-11-01T06:29:16.983Z,8.76
2022-11-01T06:30:16.413Z,8.78
2022-11-01T06:31:16.889Z,8.75
2022-11-01T06:32:16.842Z,8.75
2022-11-01T06:33:16.316Z,8.71
2022-11-01T06:34:16.775Z,8.71
2022-11-01T06:35:17.225Z,8.68
2022-11-01T06:36:16.671Z,8.67
2022-11-01T06:37:17.128Z,8.65
2022-11-01T06:38:16.640Z,8.69
2022-11-01T06:39:17.096Z,8.72
2022-11-01T06:40:16.564Z,8.78
2022-11-01T06:41:17.002Z,8.79
2022-11-01T06:42:16.836Z,8.80
2022-11-01T06:43:17.278Z,8.78
2022-11-01T06:44:16.783Z,8.79
2022-11-01T06:45:17.257Z,8.76
2022-11-01T06:46:16.739Z,8.74
2022-11-01T06:47:17.381Z,8.76
2022-11-01T06:48:16.845Z,8.80
2022-11-01T06:49:17.999Z,8.80
2022-11-01T06:50:16.857Z,8.80
2022-11-01T06:51:16.317Z,8.89
2022-11-01T06:52:16.303Z,8.91
2022-11-01T06:53:16.758Z,8.96
2022-11-01T06:54:17.183Z,8.99
2022-11-01T06:55:16.615Z,9.03
2022-11-01T06:56:17.060Z,9.02
2022-11-01T06:57:16.480Z,8.99
2022-11-01T06:58:16.933Z,9.02
2022-11-01T06:59:16.387Z,9.03
2022-11-01T07:00:16.869Z,9.05
2022-11-01T07:01:16.450Z,9.06
2022-11-01T07:02:19.529Z,9.02
2022-11-01T07:03:16.903Z,9.06
2022-11-01T07:04:16.405Z,9.09
2022-11-01T07:05:16.918Z,9.13
2022-11-01T07:06:16.399Z,9.16
2022-11-01T07:07:16.823Z,9.19
2022-11-01T07:08:17.266Z,9.24
2022-11-01T07:09:16.688Z,9.26
2022-11-01T07:10:17.117Z,9.26
2022-11-01T07:11:16.602Z,9.29
2022-11-01T07:12:16.942Z,9.33
2022-11-01T07:13:16.416Z,9.34
2022-11-01T07:14:16.888Z,9.31
2022-11-01T07:15:16.365Z,9.37
2022-11-01T07:16:16.841Z,9.38
2022-11-01T07:17:16.307Z,9.41
2022-11-01T07:18:16.785Z,9.44
2022-11-01T07:19:17.261Z,9.53
2022-11-01T07:20:16.712Z,9.55
2022-11-01T07:21:17.134Z,9.59
2022-11-01T07:22:16.888Z,9.59
2022-11-01T07:23:16.347Z,9.64
2022-11-01T07:24:16.796Z,9.68
2022-11-01T07:25:17.231Z,9.71
2022-11-01T07:26:16.670Z,9.75
2022-11-01T07:27:19.400Z,9.80
2022-11-01T07:28:17.214Z,9.82
2022-11-01T07:29:16.670Z,9.84
2022-11-01T07:30:17.140Z,9.86
2022-11-01T07:31:16.625Z,9.86
2022-11-01T07:32:16.437Z,9.84
2022-11-01T07:33:16.902Z,9.82
2022-11-01T07:34:16.361Z,9.89
2022-11-01T07:35:16.821Z,9.88
2022-11-01T07:36:17.276Z,9.88
2022-11-01T07:37:16.774Z,9.89
2022-11-01T07:38:16.598Z,9.92
2022-11-01T07:39:17.179Z,9.93
2022-11-01T07:40:16.603Z,10.05
2022-11-01T07:41:17.030Z,10.09
2022-11-01T07:42:16.580Z,10.12
2022-11-01T07:43:17.039Z,10.19
2022-11-01T07:44:16.509Z,10.21
2022-11-01T07:45:16.992Z,10.21
2022-11-01T07:46:16.456Z,10.27
2022-11-01T07:47:16.920Z,10.31
2022-11-01T07:48:16.364Z,10.41
2022-11-01T07:49:16.824Z,10.41
2022-11-01T07:50:17.284Z,10.43
2022-11-01T07:51:16.732Z,10.51
2022-11-01T07:52:16.554Z,10.51
2022-11-01T07:53:16.979Z,10.58
2022-11-01T07:54:16.421Z,10.64
2022-11-01T07:55:16.901Z,10.65
2022-11-01T07:56:16.339Z,10.71
2022-11-01T07:57:16.779Z,10.78
2022-11-01T07:58:16.389Z,10.81
2022-11-01T07:59:16.872Z,10.81
2022-11-01T08:00:16.341Z,10.89
2022-11-01T08:01:16.886Z,10.98
2022-11-01T08:02:16.508Z,11.00
2022-11-01T08:03:17.170Z,11.10
2022-11-01T08:04:16.668Z,11.15
2022-11-01T08:05:17.104Z,11.19
2022-11-01T08:06:16.591Z,11.20
2022-11-01T08:07:17.198Z,11.27
2022-11-01T08:08:16.734Z,11.29
2022-11-01T08:09:17.177Z,11.33
2022-11-01T08:10:16.609Z,11.37
2022-11-01T08:11:17.052Z,11.44
2022-11-01T08:12:17.101Z,11.44
2022-11-01T08:13:16.598Z,11.47
2022-11-01T08:14:17.109Z,11.53
2022-11-01T08:15:16.596Z,11.68
2022-11-01T08:16:17.104Z,11.71
2022-11-01T08:17:16.581Z,11.67
2022-11-01T08:18:17.040Z,11.82
2022-11-01T08:19:16.498Z,11.81
2022-11-01T08:20:17.003Z,11.89
2022-11-01T08:21:16.538Z,12.01
2022-11-01T08:22:17.349Z,11.99
2022-11-01T08:23:16.784Z,12.06
2022-11-01T08:24:17.209Z,12.05
2022-11-01T08:25:16.648Z,12.08
2022-11-01T08:26:17.099Z,12.18
2022-11-01T08:27:16.581Z,12.25
2022-11-01T08:28:17.046Z,12.22
2022-11-01T08:29:16.521Z,12.23
2022-11-01T08:30:16.973Z,12.33
2022-11-01T08:31:16.440Z,12.35
2022-11-01T08:32:16.997Z,12.33
2022-11-01T08:33:16.499Z,12.43
2022-11-01T08:34:17.289Z,12.43
2022-11-01T08:35:16.804Z,12.46
2022-11-01T08:36:17.265Z,12.41
2022-11-01T08:37:16.703Z,12.44
2022-11-01T08:38:17.154Z,12.40
2022-11-01T08:39:16.613Z,12.40
2022-11-01T08:40:17.048Z,12.44
2022-11-01T08:41:16.497Z,12.51
2022-11-01T08:42:16.322Z,12.57
2022-11-01T08:43:16.850Z,12.58
2022-11-01T08:44:16.312Z,12.66
2022-11-01T08:45:16.855Z,12.70
2022-11-01T08:46:16.654Z,12.68
2022-11-01T08:47:17.124Z,12.72
2022-11-01T08:48:16.641Z,12.78
2022-11-01T08:49:17.100Z,12.87
2022-11-01T08:50:16.567Z,12.87
2022-11-01T08:51:16.991Z,12.89
2022-11-01T08:52:16.455Z,12.95
2022-11-01T08:53:17.014Z,12.95
2022-11-01T08:54:16.441Z,12.98
2022-11-01T08:55:16.876Z,13.01
2022-11-01T08:56:16.397Z,13.06
2022-11-01T08:57:16.909Z,13.04
2022-11-01T08:58:16.469Z,13.12
2022-11-01T08:59:16.972Z,13.18
2022-11-01T09:00:16.443Z,13.21
2022-11-01T09:01:16.963Z,13.22
2022-11-01T09:02:16.495Z,13.30
2022-11-01T09:03:17.261Z,13.29
2022-11-01T09:04:16.694Z,13.29
2022-11-01T09:05:17.121Z,13.33
2022-11-01T09:06:16.573Z,13.39
2022-11-01T09:07:17.007Z,13.42
2022-11-01T09:08:16.509Z,13.49
2022-11-01T09:09:16.934Z,13.42
2022-11-01T09:10:16.386Z,13.46
2022-11-01T09:11:16.842Z,13.42
2022-11-01T09:12:19.429Z,13.44
2022-11-01T09:13:17.151Z,13.49
2022-11-01T09:14:16.624Z,13.46
2022-11-01T09:15:17.092Z,13.46
2022-11-01T09:16:16.561Z,13.46
2022-11-01T09:17:16.289Z,13.54
2022-11-01T09:18:16.745Z,13.57
2022-11-01T09:19:17.220Z,13.55
2022-11-01T09:20:16.640Z,13.54
2022-11-01T09:21:17.087Z,13.64
2022-11-01T09:22:16.460Z,13.64
2022-11-01T09:23:16.954Z,13.65
2022-11-01T09:24:16.420Z,13.65
2022-11-01T09:25:16.923Z,13.68
2022-11-01T09:26:16.428Z,13.65
2022-11-01T09:27:16.913Z,13.74
2022-11-01T09:28:16.363Z,13.81
2022-11-01T09:29:16.825Z,13.82
2022-11-01T09:30:17.303Z,13.92
2022-11-01T09:31:20.705Z,14.00
2022-11-01T09:32:16.349Z,13.90
2022-11-01T09:33:16.780Z,13.90
2022-11-01T09:34:17.252Z,14.00
2022-11-01T09:35:16.685Z,14.07
2022-11-01T09:36:17.106Z,14.20
2022-11-01T09:37:16.530Z,14.15
2022-11-01T09:38:17.000Z,14.30
2022-11-01T09:39:16.499Z,14.29
2022-11-01T09:40:17.000Z,14.22
2022-11-01T09:41:16.454Z,14.29
2022-11-01T09:42:17.108Z,14.37
2022-11-01T09:43:16.586Z,14.44
2022-11-01T09:44:17.119Z,14.46
2022-11-01T09:45:16.578Z,14.50
2022-11-01T09:46:17.086Z,14.62
2022-11-01T09:47:16.642Z,14.66
2022-11-01T09:48:17.231Z,14.63
2022-11-01T09:49:16.661Z,14.74
2022-11-01T09:50:17.102Z,14.77
2022-11-01T09:51:16.558Z,14.81
2022-11-01T09:52:16.309Z,14.85
2022-11-01T09:53:16.778Z,14.92
2022-11-01T09:54:17.233Z,14.92
2022-11-01T09:55:16.708Z,14.92
2022-11-01T09:56:17.223Z,14.97
2022-11-01T09:57:16.688Z,14.97
2022-11-01T09:58:17.148Z,15.05
2022-11-01T09:59:16.664Z,15.09
2022-11-01T10:00:17.148Z,15.12
2022-11-01T10:01:16.679Z,15.12
2022-11-01T10:02:16.555Z,15.14
2022-11-01T10:03:17.218Z,15.15
2022-11-01T10:04:16.650Z,15.16
2022-11-01T10:05:18.581Z,15.21
2022-11-01T10:06:16.646Z,15.23
2022-11-01T10:07:17.074Z,15.19
2022-11-01T10:08:16.532Z,15.23
2022-11-01T10:09:17.017Z,15.28
2022-11-01T10:10:16.500Z,15.31
2022-11-01T10:11:16.972Z,15.31
2022-11-01T10:12:17.315Z,15.31
2022-11-01T10:13:16.845Z,15.36
2022-11-01T10:14:16.310Z,15.38
2022-11-01T10:15:16.787Z,15.38
2022-11-01T10:16:17.290Z,15.38
2022-11-01T10:17:16.731Z,15.46
2022-11-01T10:18:17.167Z,15.49
2022-11-01T10:19:16.612Z,15.45
2022-11-01T10:20:17.042Z,15.47
2022-11-01T10:21:16.488Z,15.56
2022-11-01T10:22:16.824Z,15.53
2022-11-01T10:23:17.265Z,15.60
2022-11-01T10:24:16.716Z,15.67
2022-11-01T10:25:17.163Z,15.76
2022-11-01T10:26:16.613Z,15.76
2022-11-01T10:27:17.071Z,15.70
2022-11-01T10:28:16.543Z,15.77
2022-11-01T10:29:17.015Z,15.80
2022-11-01T10:30:16.486Z,15.77
2022-11-01T10:31:16.912Z,15.80
2022-11-01T10:32:16.453Z,15.77
2022-11-01T10:33:16.911Z,15.91
2022-11-01T10:34:16.400Z,15.90
2022-11-01T10:35:16.881Z,15.92
2022-11-01T10:36:16.340Z,15.88
2022-11-01T10:37:16.806Z,15.92
2022-11-01T10:38:24.802Z,15.94
2022-11-01T10:40:16.650Z,15.85
2022-11-01T10:41:17.151Z,15.87
2022-11-01T10:42:16.559Z,15.90
2022-11-01T10:43:17.041Z,15.95
2022-11-01T10:44:16.512Z,15.95
2022-11-01T10:45:16.990Z,16.07
2022-11-01T10:46:16.419Z,16.09
2022-11-01T10:47:16.855Z,16.14
2022-11-01T10:48:16.333Z,16.19
2022-11-01T10:49:16.823Z,16.29
2022-11-01T10:50:17.270Z,16.28
2022-11-01T10:51:16.701Z,16.38
2022-11-01T10:52:17.163Z,16.45
2022-11-01T10:54:17.255Z,16.42
2022-11-01T10:55:16.699Z,16.47
2022-11-01T10:56:18.563Z,16.39
2022-11-01T10:57:16.544Z,16.47
2022-11-01T10:58:17.005Z,16.49
2022-11-01T10:59:16.461Z,16.52
2022-11-01T11:00:16.953Z,16.63
2022-11-01T11:01:16.581Z,16.70
2022-11-01T11:02:16.741Z,16.74
2022-11-01T11:03:16.521Z,16.81
2022-11-01T11:04:16.962Z,16.81
2022-11-01T11:05:16.408Z,16.83
2022-11-01T11:06:16.868Z,16.84
2022-11-01T11:07:18.561Z,16.90
2022-11-01T11:08:16.604Z,16.78
2022-11-01T11:09:17.130Z,16.76
2022-11-01T11:10:18.260Z,16.76
2022-11-01T11:11:16.652Z,16.80
2022-11-01T11:12:17.305Z,16.91
2022-11-01T11:13:16.834Z,17.03
2022-11-01T11:14:16.350Z,16.98
2022-11-01T11:15:16.810Z,16.84
2022-11-01T11:16:17.285Z,16.84
2022-11-01T11:17:16.719Z,16.84
2022-11-01T11:18:17.168Z,16.88
2022-11-01T11:19:16.594Z,17.00
2022-11-01T11:20:17.140Z,17.01
2022-11-01T11:21:16.807Z,17.04
2022-11-01T11:22:17.337Z,17.01
2022-11-01T11:23:16.874Z,17.05
2022-11-01T11:24:16.365Z,17.05
2022-11-01T11:25:16.873Z,17.03
2022-11-01T11:26:16.388Z,17.04
2022-11-01T11:27:16.915Z,17.10
2022-11-01T11:28:16.365Z,17.17
2022-11-01T11:29:16.852Z,17.14
2022-11-01T11:30:16.358Z,17.18
2022-11-01T11:31:16.941Z,17.18
2022-11-01T11:32:16.321Z,17.24
2022-11-01T11:33:16.785Z,17.21
2022-11-01T11:34:17.264Z,17.22
2022-11-01T11:35:16.732Z,17.19
2022-11-01T11:36:17.179Z,17.15
2022-11-01T11:37:16.674Z,17.18
2022-11-01T11:38:17.149Z,17.15
2022-11-01T11:39:16.656Z,17.14
2022-11-01T11:40:17.213Z,17.18
2022-11-01T11:41:16.753Z,17.22
2022-11-01T11:42:16.875Z,17.14
2022-11-01T11:43:16.395Z,17.10
2022-11-01T11:44:16.875Z,17.07
2022-11-01T11:45:16.313Z,17.10
2022-11-01T11:46:16.736Z,17.10
2022-11-01T11:47:17.205Z,17.05
2022-11-01T11:48:16.645Z,17.00
2022-11-01T11:49:17.071Z,16.97
2022-11-01T11:50:16.624Z,17.00
2022-11-01T11:51:17.090Z,17.05
2022-11-01T11:52:16.560Z,17.08
2022-11-01T11:53:17.011Z,17.07
2022-11-01T11:54:16.537Z,17.05
2022-11-01T11:55:17.032Z,16.94
2022-11-01T11:56:16.557Z,16.88
2022-11-01T11:57:17.032Z,16.88
2022-11-01T11:58:16.550Z,16.88
2022-11-01T11:59:17.056Z,16.88
2022-11-01T12:00:16.514Z,16.88
2022-11-01T12:01:17.037Z,16.87
2022-11-01T12:02:16.740Z,16.91
2022-11-01T12:03:16.496Z,16.93
2022-11-01T12:04:16.997Z,16.98
2022-11-01T12:05:16.433Z,17.01
2022-11-01T12:06:16.873Z,17.01
2022-11-01T12:07:16.320Z,16.93
2022-11-01T12:08:16.783Z,17.00
2022-11-01T12:09:22.075Z,17.03
2022-11-01T12:10:16.476Z,17.07
2022-11-01T12:11:16.992Z,17.11
2022-11-01T12:12:16.911Z,17.07
2022-11-01T12:13:16.408Z,17.08
2022-11-01T12:14:16.887Z,17.18
2022-11-01T12:15:16.334Z,17.24
2022-11-01T12:16:16.891Z,17.21
2022-11-01T12:17:16.560Z,17.22
2022-11-01T12:18:17.021Z,17.22
2022-11-01T12:19:16.466Z,17.28
2022-11-01T12:20:16.915Z,17.26
2022-11-01T12:21:16.371Z,17.26
2022-11-01T12:22:16.398Z,17.25
2022-11-01T12:23:16.898Z,17.25
2022-11-01T12:24:16.370Z,17.28
2022-11-01T12:25:16.857Z,17.21
2022-11-01T12:26:16.556Z,17.13
2022-11-01T12:27:17.386Z,17.14
2022-11-01T12:28:16.871Z,17.28
2022-11-01T12:29:16.333Z,17.17
2022-11-01T12:30:16.799Z,17.17
2022-11-01T12:31:17.263Z,17.31
2022-11-01T12:32:17.182Z,17.35
2022-11-01T12:34:17.049Z,17.39
2022-11-01T12:35:16.550Z,17.33
2022-11-01T12:36:17.013Z,17.36
2022-11-01T12:37:16.507Z,17.35
2022-11-01T12:38:16.968Z,17.35
2022-11-01T12:39:16.445Z,17.31
2022-11-01T12:40:16.944Z,17.22
2022-11-01T12:41:16.456Z,17.24
2022-11-01T12:42:16.427Z,17.24
2022-11-01T12:43:16.894Z,17.32
2022-11-01T12:44:16.332Z,17.32
2022-11-01T12:45:16.770Z,17.32
2022-11-01T12:46:17.203Z,17.26
2022-11-01T12:47:16.625Z,17.25
2022-11-01T12:48:17.074Z,17.24
2022-11-01T12:49:16.538Z,17.31
2022-11-01T12:50:17.088Z,17.25
2022-11-01T12:51:16.533Z,17.17
2022-11-01T12:52:16.655Z,17.25
2022-11-01T12:53:17.153Z,17.22
2022-11-01T12:54:16.702Z,17.21
2022-11-01T12:55:18.184Z,17.21
2022-11-01T12:56:16.564Z,17.21
2022-11-01T12:57:17.041Z,17.24
2022-11-01T12:58:16.500Z,17.29
2022-11-01T12:59:16.972Z,17.24
2022-11-01T13:00:16.424Z,17.32
2022-11-01T13:01:16.977Z,17.24
2022-11-01T13:02:17.344Z,17.32
2022-11-01T13:03:16.924Z,17.43
2022-11-01T13:04:16.382Z,17.46
2022-11-01T13:05:16.837Z,17.45
2022-11-01T13:06:16.369Z,17.46
2022-11-01T13:07:16.836Z,17.38
2022-11-01T13:08:16.340Z,17.38
2022-11-01T13:09:16.817Z,17.33
2022-11-01T13:10:17.311Z,17.41
2022-11-01T13:11:16.789Z,17.53